Latest Coastal Weather Observations for Pirlangimpi (Garden Point)

IDD60701

Issued at 5:51 am CST Friday 31 March 2017 (issued every 10 minutes, with the page automatically refreshed every 10 minutes)

About coastal observations | Map of coastal stations | Coastal observations for NT | Marine services | Other Formats
Station Details ID: 014142 Name: PIRLANGIMPI AIRPORT Lat: -11.40 Lon: 130.42 Height: 18.3 m
Data from the previous 72 hours. | See also: Recent months at Pirlangimpi (Garden Point)
Date/Time
CST
Temp
°C
Wind Pressure Rain since
9am
mm
Weather Cloud Vis
km
Sea
Height
m
Swell
Dir  Spd
kts
Gust
kts
hPa Trend Height
m
Period
s
Dir
31/05:30am 22.7 E 5 9 1009.7 - 3.0 - - - - - - -
31/05:00am 22.7 SE 7 13 1009.1 - 1.4 - - - - - - -
31/04:30am 23.5 SE 9 17 1009.5 - 0.8 - - - - - - -
31/04:16am 25.2 SSE 12 23 1009.7 - 0.0 - - - - - - -
31/04:00am 27.3 SSW 4 7 1009.1 - 0.0 - - - - - - -
31/03:30am 27.1 CALM 0 1 1008.7 - 0.0 - - - - - - -
31/03:00am 27.1 CALM 0 0 1009.0 - 0.0 - - - - - - -
31/02:30am 26.8 W 1 2 1008.6 - 0.0 - - - - - - -
31/02:00am 26.6 CALM 0 1 1008.7 - 0.0 - - - - - - -
31/01:30am 26.2 CALM 0 1 1009.0 - 0.0 - - - - - - -
31/01:00am 26.3 CALM 0 0 1009.4 - 0.0 - - - - - - -
31/12:30am 26.3 CALM 0 0 1010.1 - 0.0 - - - - - - -
31/12:00am 26.3 CALM 0 2 1010.1 - 0.0 - - - - - - -
 
Date/Time
CST
Temp
°C
Wind Pressure Rain since
9am
mm
Weather Cloud Vis
km
Sea
Height
m
Swell
Dir  Spd
kts
Gust
kts
hPa Trend Height
m
Period
s
Dir
30/11:30pm 26.4 CALM 0 0 1010.4 - 0.0 - - - - - - -
30/11:00pm 26.7 CALM 0 3 1010.3 - 0.0 - - - - - - -
30/10:30pm 27.5 SW 1 3 1010.3 - 0.0 - - - - - - -
30/10:00pm 27.6 WSW 1 2 1010.0 - 0.0 - - - - - - -
30/09:30pm 27.9 WSW 2 3 1009.8 - 0.0 - - - - - - -
30/09:00pm 28.0 WSW 1 2 1009.3 - 0.0 - - - - - - -
30/08:30pm 28.0 CALM 0 1 1009.1 - 0.0 - - - - - - -
30/08:00pm 28.3 CALM 0 0 1008.6 - 0.0 - - - - - - -
30/07:30pm 28.5 WSW 1 3 1008.5 - 0.0 - - - - - - -
30/07:00pm 28.6 W 1 3 1008.0 - 0.0 - - - - - - -
30/06:30pm 29.0 W 2 4 1008.1 - 0.0 - - - - - - -
30/06:00pm 29.4 WNW 3 6 1007.9 - 0.0 - - - - - - -
30/05:30pm 30.0 WNW 2 5 1007.7 - 0.0 - - - - - - -
30/05:00pm 30.4 W 1 4 1007.7 - 0.0 - - - - - - -
30/04:30pm 30.9 WNW 2 3 1007.7 - 0.0 - - - - - - -
30/04:00pm 31.4 NW 2 4 1007.7 - 0.0 - - - - - - -
30/03:30pm 31.8 W 3 7 1007.4 - 0.0 - - - - - - -
30/03:00pm 31.4 WSW 4 7 1007.8 - 0.0 - - - - - - -
30/02:30pm 30.8 W 2 3 1008.4 - 0.0 - - - - - - -
30/02:00pm 30.6 W 3 6 1008.4 - 0.0 - - - - - - -
30/01:30pm 31.3 WNW 2 4 1008.8 - 0.0 - - - - - - -
30/01:00pm 31.9 W 5 10 1009.3 - 0.0 - - - - - - -
30/12:30pm 30.9 WNW 5 9 1009.5 - 0.0 - - - - - - -
30/12:00pm 30.8 W 5 10 1009.9 - 0.0 - - - - - - -
30/11:30am 30.1 NW 5 9 1010.5 - 0.0 - - - - - - -
30/11:00am 29.5 NW 5 9 1010.9 - 0.0 - - - - - - -
30/10:30am 29.1 NW 4 8 1010.7 - 0.0 - - - - - - -
30/10:00am 28.9 NNW 6 11 1010.5 - 0.0 - - - - - - -
30/09:30am 28.3 N 4 8 1010.4 - 0.0 - - - - - - -
30/09:00am 26.7 NNW 5 8 1010.1 - 0.0 - - - - - - -
30/08:30am 26.6 N 4 6 1010.0 - 0.0 - - - - - - -
30/08:00am 25.8 NW 4 8 1009.4 - 0.0 - - - - - - -
30/07:30am 25.1 NW 1 2 1010.4 - 0.0 - - - - - - -
30/07:00am 24.8 NNW 1 2 1010.9 - 0.0 - - - - - - -
30/06:30am 25.0 N 1 1 1010.8 - 0.0 - - - - - - -
30/06:00am 25.5 SSE 1 3 1010.1 - 0.0 - - - - - - -
30/05:30am 25.6 E 4 6 1010.3 - 0.0 - - - - - - -
30/05:00am 25.7 ESE 6 10 1010.5 - 0.0 - - - - - - -
30/04:30am 25.7 ESE 3 5 1009.4 - 0.0 - - - - - - -
30/04:00am 25.6 CALM 0 1 1008.6 - 0.0 - - - - - - -
30/03:30am 25.6 WNW 1 3 1008.7 - 0.0 - - - - - - -
30/03:00am 25.9 CALM 0 0 1009.1 - 0.0 - - - - - - -
30/02:30am 26.5 SSW 4 6 1009.0 - 0.0 - - - - - - -
30/02:00am 26.5 S 3 6 1009.6 - 0.0 - - - - - - -
30/01:30am 26.9 WSW 1 4 1009.9 - 0.0 - - - - - - -
30/01:00am 27.3 SW 4 7 1009.7 - 0.0 - - - - - - -
30/12:30am 27.4 WSW 2 3 1009.7 - 0.0 - - - - - - -
30/12:00am 27.2 S 2 3 1010.0 - 0.0 - - - - - - -
 
Date/Time
CST
Temp
°C
Wind Pressure Rain since
9am
mm
Weather Cloud Vis
km
Sea
Height
m
Swell
Dir  Spd
kts
Gust
kts
hPa Trend Height
m
Period
s
Dir
29/11:30pm 26.9 SW 1 2 1010.1 - 0.0 - - - - - - -
29/11:00pm 27.1 SW 1 3 1010.2 - 0.0 - - - - - - -
29/10:30pm 27.4 CALM 0 0 1010.6 - 0.0 - - - - - - -
29/10:00pm 27.3 CALM 0 0 1010.8 - 0.0 - - - - - - -
29/09:30pm 27.5 CALM 0 1 1010.8 - 0.0 - - - - - - -
29/09:00pm 27.7 CALM 0 0 1010.3 - 0.0 - - - - - - -
29/08:30pm 28.1 W 1 3 1009.5 - 0.0 - - - - - - -
29/08:00pm 28.1 W 1 2 1008.9 - 0.0 - - - - - - -
29/07:30pm 28.3 WSW 1 1 1009.1 - 0.0 - - - - - - -
29/07:00pm 28.8 WSW 3 5 1008.7 - 0.0 - - - - - - -
29/06:30pm 29.3 WSW 3 8 1007.8 - 0.0 - - - - - - -
29/06:00pm 29.6 W 3 7 1007.2 - 0.0 - - - - - - -
29/05:30pm 30.1 W 3 6 1007.0 - 0.0 - - - - - - -
29/05:00pm 30.5 W 4 7 1006.9 - 0.0 - - - - - - -
29/04:30pm 30.6 W 4 10 1006.9 - 0.0 - - - - - - -
29/04:00pm 31.7 W 4 7 1006.9 - 0.0 - - - - - - -
29/03:30pm 31.3 WSW 4 8 1007.3 - 0.0 - - - - - - -
29/03:00pm 31.4 W 5 10 1007.4 - 0.0 - - - - - - -
29/02:30pm 32.0 W 5 9 1007.5 - 0.0 - - - - - - -
29/02:00pm 32.5 W 5 10 1007.6 - 0.0 - - - - - - -
29/01:30pm 32.1 WNW 5 12 1007.8 - 0.0 - - - - - - -
29/01:00pm 31.9 W 4 8 1008.3 - 0.0 - - - - - - -
29/12:30pm 32.5 W 4 10 1008.8 - 0.0 - - - - - - -
29/12:00pm 31.9 W 5 10 1009.0 - 0.0 - - - - - - -
29/11:30am 31.1 WSW 4 8 1009.5 - 0.0 - - - - - - -
29/11:00am 31.0 WNW 4 8 1009.9 - 0.0 - - - - - - -
29/10:30am 30.9 WSW 4 9 1010.0 - 0.0 - - - - - - -
29/10:00am 30.5 W 4 9 1010.0 - 0.0 - - - - - - -
29/09:30am 30.1 W 4 8 1010.0 - 0.0 - - - - - - -
29/09:00am 29.7 W 2 5 1010.1 - 2.0 - - - - - - -
29/08:30am 28.7 W 2 5 1010.0 - 2.0 - - - - - - -
29/08:00am 27.9 W 1 2 1009.8 - 2.0 - - - - - - -
29/07:30am 27.2 SW 2 3 1009.4 - 2.0 - - - - - - -
29/07:00am 26.8 WSW 2 3 1009.1 - 2.0 - - - - - - -
29/06:30am 26.7 WSW 1 3 1008.8 - 2.0 - - - - - - -
29/06:00am 26.9 W 1 2 1008.8 - 2.0 - - - - - - -
29/05:30am 27.0 WSW 1 3 1008.5 - 2.0 - - - - - - -
29/05:00am 27.0 W 1 3 1008.4 - 2.0 - - - - - - -
29/04:30am 27.1 WSW 1 3 1008.6 - 2.0 - - - - - - -
29/04:00am 27.3 WSW 1 3 1008.4 - 2.0 - - - - - - -
29/03:30am 27.5 WSW 2 5 1008.2 - 2.0 - - - - - - -
29/03:00am 27.5 WSW 1 3 1008.2 - 2.0 - - - - - - -
29/02:30am 27.6 W 1 3 1008.4 - 2.0 - - - - - - -
29/02:00am 27.6 W 1 4 1008.3 - 2.0 - - - - - - -
29/01:30am 27.5 WNW 2 4 1008.4 - 2.0 - - - - - - -
29/01:00am 27.5 W 2 5 1008.6 - 2.0 - - - - - - -
29/12:30am 27.5 WNW 1 3 1008.8 - 2.0 - - - - - - -
29/12:00am 27.3 W 2 4 1009.2 - 2.0 - - - - - - -
 
Date/Time
CST
Temp
°C
Wind Pressure Rain since
9am
mm
Weather Cloud Vis
km
Sea
Height
m
Swell
Dir  Spd
kts
Gust
kts
hPa Trend Height
m
Period
s
Dir
28/11:30pm 26.9 CALM 0 1 1009.5 - 2.0 - - - - - - -
28/11:00pm 27.0 W 1 3 1009.9 - 2.0 - - - - - - -
28/10:30pm 27.0 CALM 0 2 1009.8 - 2.0 - - - - - - -
28/10:00pm 27.3 WSW 1 3 1009.7 - 2.0 - - - - - - -
28/09:30pm 27.6 W 1 3 1009.5 - 2.0 - - - - - - -
28/09:00pm 27.8 WSW 1 2 1009.0 - 2.0 - - - - - - -
28/08:30pm 28.0 W 1 3 1008.7 - 2.0 - - - - - - -
28/08:00pm 28.2 W 1 3 1008.2 - 2.0 - - - - - - -
28/07:30pm 28.6 WSW 2 4 1007.4 - 2.0 - - - - - - -
28/07:00pm 29.0 WSW 4 6 1007.0 - 2.0 - - - - - - -
28/06:30pm 29.5 SW 5 9 1006.7 - 2.0 - - - - - - -
28/06:00pm 30.1 WSW 4 10 1006.6 - 2.0 - - - - - - -
28/05:30pm 30.5 WSW 4 11 1006.7 - 2.0 - - - - - - -
28/05:00pm 32.3 W 5 10 1006.7 - 2.0 - - - - - - -
28/04:30pm 32.5 SW 5 8 1006.6 - 2.0 - - - - - - -
28/04:00pm 32.5 SW 5 7 1006.7 - 2.0 - - - - - - -
28/03:30pm 32.8 WSW 4 8 1006.9 - 2.0 - - - - - - -
28/03:00pm 32.3 WSW 4 7 1007.2 - 2.0 - - - - - - -
28/02:30pm 32.5 WSW 5 9 1007.3 - 2.0 - - - - - - -
28/02:00pm 32.4 SW 6 10 1007.7 - 2.0 - - - - - - -
28/01:30pm 31.8 SW 5 7 1008.4 - 2.0 - - - - - - -
28/01:00pm 31.3 SW 7 12 1008.8 - 2.0 - - - - - - -
28/12:30pm 30.7 WSW 4 9 1009.3 - 2.0 - - - - - - -
28/12:00pm 30.3 W 5 9 1009.9 - 2.0 Recent precip. - - - - - -
28/11:30am 29.1 W 3 8 1010.7 - 1.8 - - - - - - -
28/11:00am 29.2 NW 4 11 1010.8 - 0.2 - - - - - - -
28/10:30am 29.3 NW 5 10 1010.9 - 0.2 - - - - - - -
28/10:00am 29.3 NW 3 6 1010.9 - 0.0 - - - - - - -
28/09:30am 27.8 NW 3 6 1011.0 - 0.0 - - - - - - -
28/09:00am 26.1 WNW 4 6 1011.0 - 3.8 Recent precip. - - - - - -
28/08:30am 25.1 WNW 3 5 1011.1 - 3.6 - - - - - - -
28/08:00am 26.4 NNW 1 2 1010.7 - 0.4 - - - - - - -
28/07:30am 25.9 NW 2 6 1010.3 - 0.4 - - - - - - -
28/07:00am 25.9 WSW 5 11 1010.0 - 0.2 - - - - - - -
28/06:30am 27.4 W 2 5 1009.8 - 0.2 - - - - - - -
28/06:00am 27.5 WNW 3 5 1009.5 - 0.2 - - - - - - -

Other Formats:

Comma delimited format used in spreadsheet applications
http://www.bom.gov.au/fwo/IDD60701/IDD60701.94119.axf

JavaScript Object Notation format (JSON) in row-major order
http://www.bom.gov.au/fwo/IDD60701/IDD60701.94119.json